Time;durP1;ratioP1;P1;durP2;ratioP2;P2;SDS_P1;SDS_P2;PMS_P1;PMS_P2;Temp;Humidity;BMP_temperature;BMP_pressure;BME280_temperature;BME280_humidity;BME280_pressure;Samples;Min_cycle;Max_cycle;Signal;HPM_P1;HPM_P2
2021/04/09 05:36:16;;;;;;;35.63;16.88;;;;;;;;;;5753014;23;20045;-60
2021/04/09 05:38:42;;;;;;;38.50;16.45;;;;;;;;;;4963277;28;20097;-61
2021/04/09 05:41:08;;;;;;;35.03;14.55;;;;;;;;;;4973551;28;20035;-61
2021/04/09 05:43:34;;;;;;;76.63;45.60;;;;;;;;;;4955472;28;20098;-61
2021/04/09 05:46:00;;;;;;;55.53;33.75;;;;;;;;;;4971400;28;20049;-63
2021/04/09 05:48:26;;;;;;;43.90;21.80;;;;;;;;;;4954383;28;20069;-59
2021/04/09 05:50:52;;;;;;;40.22;21.05;;;;;;;;;;4971826;28;20034;-62
2021/04/09 05:53:19;;;;;;;39.80;21.55;;;;;;;;;;4968837;28;20031;-63
2021/04/09 05:55:45;;;;;;;43.58;22.02;;;;;;;;;;4970128;28;20489;-61
2021/04/09 05:58:12;;;;;;;43.97;21.17;;;;;;;;;;4970719;28;20035;-61
2021/04/09 06:00:38;;;;;;;41.03;20.90;;;;;;;;;;4969613;28;20054;-61
2021/04/09 06:03:04;;;;;;;50.50;24.75;;;;;;;;;;4970767;28;20506;-63
2021/04/09 06:05:30;;;;;;;52.60;23.67;;;;;;;;;;4968987;28;20033;-61
2021/04/09 06:07:56;;;;;;;43.38;22.88;;;;;;;;;;4969949;28;20061;-65
2021/04/09 06:10:23;;;;;;;47.22;26.42;;;;;;;;;;4969807;28;20426;-62
2021/04/09 06:12:49;;;;;;;47.50;25.05;;;;;;;;;;4979853;28;20035;-62
2021/04/09 06:15:16;;;;;;;40.92;23.13;;;;;;;;;;4977151;28;20035;-59
2021/04/09 06:17:43;;;;;;;28.50;17.85;;;;;;;;;;4969360;28;20062;-62
2021/04/09 06:20:09;;;;;;;23.70;13.45;;;;;;;;;;4970384;28;20029;-62
2021/04/09 06:22:36;;;;;;;23.95;13.25;;;;;;;;;;4952516;28;20527;-64
2021/04/09 06:25:04;;;;;;;27.02;13.13;;;;;;;;;;4969475;28;20045;-62
2021/04/09 06:27:30;;;;;;;22.05;11.88;;;;;;;;;;4969628;28;20470;-65
2021/04/09 06:29:57;;;;;;;23.38;11.48;;;;;;;;;;4970047;28;20034;-67
2021/04/09 06:32:23;;;;;;;42.33;20.80;;;;;;;;;;4970040;28;20583;-67
2021/04/09 06:34:49;;;;;;;17.45;9.93;;;;;;;;;;4982129;28;20108;-67
2021/04/09 06:37:16;;;;;;;19.10;8.85;;;;;;;;;;4995307;28;20050;-76
2021/04/09 06:39:42;;;;;;;16.73;9.38;;;;;;;;;;4987058;28;20096;-65
2021/04/09 06:42:17;;;;;;;24.23;11.38;;;;;;;;;;4986217;28;20038;-65
2021/04/09 06:44:48;;;;;;;19.83;10.00;;;;;;;;;;4987685;28;20435;-67
2021/04/09 06:47:15;;;;;;;17.63;9.55;;;;;;;;;;4987243;28;20465;-67
2021/04/09 06:49:41;;;;;;;38.38;16.50;;;;;;;;;;4983195;28;20434;-66
2021/04/09 06:52:10;;;;;;;21.73;10.60;;;;;;;;;;4981513;28;20096;-68
2021/04/09 06:54:42;;;;;;;15.05;7.10;;;;;;;;;;4984300;28;20522;-67
2021/04/09 06:57:17;;;;;;;17.50;9.57;;;;;;;;;;4994424;28;20025;-68
2021/04/09 06:59:45;;;;;;;19.70;11.18;;;;;;;;;;4991996;28;20030;-69
2021/04/09 07:02:15;;;;;;;15.30;8.50;;;;;;;;;;4993701;28;20022;-69
2021/04/09 07:04:42;;;;;;;13.98;7.60;;;;;;;;;;4992327;28;20075;-67
2021/04/09 07:07:12;;;;;;;12.90;7.82;;;;;;;;;;4990987;28;20057;-65
2021/04/09 07:09:39;;;;;;;13.02;6.75;;;;;;;;;;4984023;28;20081;-66
2021/04/09 07:12:06;;;;;;;10.52;5.68;;;;;;;;;;4971123;28;20473;-70
2021/04/09 07:14:50;;;;;;;14.93;6.85;;;;;;;;;;4986382;28;20041;-67
2021/04/09 07:17:31;;;;;;;12.82;6.80;;;;;;;;;;4971638;28;20034;-69
2021/04/09 07:20:13;;;;;;;10.80;6.78;;;;;;;;;;4985256;28;20058;-67
2021/04/09 07:22:40;;;;;;;14.50;6.90;;;;;;;;;;4973369;28;20496;-66
2021/04/09 07:25:07;;;;;;;11.73;6.40;;;;;;;;;;4983122;28;20109;-65
2021/04/09 07:27:33;;;;;;;12.02;6.25;;;;;;;;;;4980717;28;20037;-64
2021/04/09 07:29:59;;;;;;;13.80;6.47;;;;;;;;;;4990840;28;20057;-65
2021/04/09 07:32:27;;;;;;;11.32;6.35;;;;;;;;;;4984558;28;20132;-66
2021/04/09 07:35:03;;;;;;;10.57;5.70;;;;;;;;;;4983569;28;20657;-69
2021/04/09 07:37:30;;;;;;;11.75;5.63;;;;;;;;;;4972786;28;20078;-70
2021/04/09 07:39:57;;;;;;;11.05;5.20;;;;;;;;;;4976946;28;20035;-68
2021/04/09 07:42:50;;;;;;;11.63;6.13;;;;;;;;;;4973250;28;20037;-69
2021/04/09 07:45:17;;;;;;;10.55;5.30;;;;;;;;;;4966807;28;20039;-69
2021/04/09 07:47:54;;;;;;;10.45;5.45;;;;;;;;;;4980801;28;20457;-71
2021/04/09 07:50:20;;;;;;;12.80;6.43;;;;;;;;;;4980491;28;20485;-70
2021/04/09 07:52:49;;;;;;;16.90;6.38;;;;;;;;;;4978365;28;20030;-67
2021/04/09 07:55:28;;;;;;;12.45;6.78;;;;;;;;;;4977430;28;20062;-69
2021/04/09 07:57:54;;;;;;;12.63;6.45;;;;;;;;;;4976892;28;20042;-69
2021/04/09 08:00:23;;;;;;;11.35;6.18;;;;;;;;;;4979941;28;20077;-68
2021/04/09 08:02:50;;;;;;;13.35;6.82;;;;;;;;;;4981232;28;20063;-68
2021/04/09 08:05:18;;;;;;;13.77;7.65;;;;;;;;;;4961531;28;20030;-67
2021/04/09 08:07:44;;;;;;;17.85;8.30;;;;;;;;;;4976501;28;20030;-67
2021/04/09 08:10:12;;;;;;;14.90;9.23;;;;;;;;;;4978833;28;20069;-67
2021/04/09 08:12:39;;;;;;;12.32;5.60;;;;;;;;;;4978800;28;20030;-67
2021/04/09 08:15:16;;;;;;;7.60;4.63;;;;;;;;;;4961880;28;20037;-68
2021/04/09 08:17:43;;;;;;;9.43;5.10;;;;;;;;;;4980625;28;20026;-68
2021/04/09 08:20:11;;;;;;;9.95;4.63;;;;;;;;;;4980294;28;20437;-69
2021/04/09 08:22:37;;;;;;;8.82;4.88;;;;;;;;;;4982347;28;20029;-68
2021/04/09 08:25:05;;;;;;;11.38;4.93;;;;;;;;;;4981008;28;20106;-68
2021/04/09 08:27:31;;;;;;;8.00;3.67;;;;;;;;;;4982755;28;20031;-68
2021/04/09 08:29:57;;;;;;;6.03;3.20;;;;;;;;;;4982241;28;20031;-68
2021/04/09 08:32:24;;;;;;;9.57;4.32;;;;;;;;;;4978278;28;20031;-67
2021/04/09 08:34:50;;;;;;;8.07;4.05;;;;;;;;;;4966877;28;20037;-68
2021/04/09 08:37:16;;;;;;;11.98;6.35;;;;;;;;;;4983530;28;20100;-68
2021/04/09 08:39:42;;;;;;;16.15;5.93;;;;;;;;;;4988904;28;20481;-69
2021/04/09 08:42:08;;;;;;;9.55;5.15;;;;;;;;;;4994277;28;20029;-68
2021/04/09 08:44:35;;;;;;;11.40;5.68;;;;;;;;;;4982339;28;20090;-68
2021/04/09 08:47:01;;;;;;;7.28;4.07;;;;;;;;;;4966009;28;20042;-68
2021/04/09 08:49:28;;;;;;;8.48;4.47;;;;;;;;;;4983593;28;20035;-68
2021/04/09 08:52:05;;;;;;;7.35;4.07;;;;;;;;;;4981477;28;20066;-68
2021/04/09 08:54:32;;;;;;;7.90;3.95;;;;;;;;;;4963672;28;20057;-69
2021/04/09 08:56:58;;;;;;;8.55;4.40;;;;;;;;;;4981913;28;20026;-67
2021/04/09 08:59:41;;;;;;;16.58;7.97;;;;;;;;;;4965085;28;20041;-68
2021/04/09 09:02:07;;;;;;;;;;;;;;;;;;4983716;28;20040;-66
2021/04/09 09:04:33;;;;;;;12.35;5.45;;;;;;;;;;4983814;28;20004;-69
2021/04/09 09:07:00;;;;;;;8.30;4.30;;;;;;;;;;4973829;28;20019;-67
2021/04/09 09:09:29;;;;;;;7.53;4.63;;;;;;;;;;4966759;28;20458;-68
2021/04/09 09:11:57;;;;;;;6.38;3.88;;;;;;;;;;4982153;28;20401;-66
2021/04/09 09:14:35;;;;;;;7.85;3.80;;;;;;;;;;4982732;28;20785;-67
2021/04/09 09:17:19;;;;;;;7.28;4.25;;;;;;;;;;4963808;28;20122;-69
2021/04/09 09:19:45;;;;;;;7.93;4.88;;;;;;;;;;4985464;28;20054;-69
2021/04/09 09:22:21;;;;;;;9.35;4.60;;;;;;;;;;4981389;28;20054;-70
2021/04/09 09:25:06;;;;;;;8.80;4.65;;;;;;;;;;4966698;28;20053;-68
2021/04/09 09:27:46;;;;;;;11.35;5.85;;;;;;;;;;4972592;28;20018;-67
2021/04/09 09:30:29;;;;;;;10.65;4.53;;;;;;;;;;4988567;28;20033;-70
2021/04/09 09:33:34;;;;;;;7.57;3.97;;;;;;;;;;4983036;28;20062;-69
2021/04/09 09:36:03;;;;;;;9.70;4.70;;;;;;;;;;4922346;29;20503;-67
2021/04/09 09:38:48;;;;;;;7.72;4.50;;;;;;;;;;4928762;29;20121;-68
2021/04/09 09:41:34;;;;;;;7.32;3.55;;;;;;;;;;4926489;29;20028;-68
2021/04/09 09:44:00;;;;;;;6.88;3.60;;;;;;;;;;4912477;29;20043;-69
2021/04/09 09:46:45;;;;;;;9.95;4.32;;;;;;;;;;4912531;29;20041;-67
2021/04/09 09:49:14;;;;;;;6.90;3.97;;;;;;;;;;4912650;29;20531;-69
2021/04/09 09:51:40;;;;;;;9.40;4.55;;;;;;;;;;4913460;29;20066;-67
2021/04/09 09:54:06;;;;;;;8.80;4.38;;;;;;;;;;4952061;23;20055;-68
2021/04/09 09:56:32;;;;;;;6.15;3.17;;;;;;;;;;4973475;28;20022;-69
2021/04/09 09:58:58;;;;;;;5.97;3.55;;;;;;;;;;4972582;28;20030;-67
2021/04/09 10:01:28;;;;;;;6.68;3.95;;;;;;;;;;5084382;23;20002;-68
2021/04/09 10:03:55;;;;;;;7.50;4.20;;;;;;;;;;4992395;28;20026;-68
2021/04/09 10:06:27;;;;;;;7.32;4.53;;;;;;;;;;4992231;28;20533;-69
2021/04/09 10:08:53;;;;;;;8.65;3.83;;;;;;;;;;4991561;28;20026;-67
2021/04/09 10:11:20;;;;;;;9.18;3.92;;;;;;;;;;4986092;28;20085;-66
2021/04/09 10:13:47;;;;;;;10.32;4.95;;;;;;;;;;4980466;28;20027;-69
2021/04/09 10:16:13;;;;;;;13.80;5.85;;;;;;;;;;4977309;28;20390;-70
2021/04/09 10:18:41;;;;;;;8.60;4.07;;;;;;;;;;4981682;28;20489;-67
2021/04/09 10:21:13;;;;;;;6.93;4.10;;;;;;;;;;4980372;28;20561;-69
2021/04/09 10:23:40;;;;;;;9.93;4.95;;;;;;;;;;4981628;28;20038;-67
2021/04/09 10:26:06;;;;;;;8.07;4.80;;;;;;;;;;4975031;28;20027;-68
2021/04/09 10:28:33;;;;;;;10.00;4.78;;;;;;;;;;4981833;28;20026;-69
2021/04/09 10:31:10;;;;;;;9.70;4.13;;;;;;;;;;4983754;28;20026;-68
2021/04/09 10:33:37;;;;;;;12.13;5.15;;;;;;;;;;4989415;28;20034;-67
2021/04/09 10:36:16;;;;;;;9.30;5.88;;;;;;;;;;4992251;28;20022;-69
2021/04/09 10:38:42;;;;;;;9.02;4.68;;;;;;;;;;4991627;28;20109;-72
2021/04/09 10:41:08;;;;;;;8.75;4.75;;;;;;;;;;4991468;28;20058;-71
2021/04/09 10:43:35;;;;;;;9.07;4.85;;;;;;;;;;4991863;28;20077;-71
2021/04/09 10:46:10;;;;;;;7.45;4.65;;;;;;;;;;4992223;28;20026;-69
2021/04/09 10:48:37;;;;;;;7.95;5.18;;;;;;;;;;4991922;28;20034;-68
2021/04/09 10:51:03;;;;;;;9.00;4.50;;;;;;;;;;4992265;28;20034;-68
2021/04/09 10:53:29;;;;;;;8.00;4.75;;;;;;;;;;4990794;28;20053;-66
2021/04/09 10:56:06;;;;;;;7.25;4.25;;;;;;;;;;4991640;28;20034;-68
2021/04/09 10:58:33;;;;;;;10.35;4.22;;;;;;;;;;4991648;28;20089;-69
2021/04/09 11:00:59;;;;;;;8.48;3.90;;;;;;;;;;4992019;28;20057;-68
2021/04/09 11:03:25;;;;;;;9.60;4.13;;;;;;;;;;4991777;28;20141;-68
2021/04/09 11:05:51;;;;;;;7.53;4.18;;;;;;;;;;4991648;28;20038;-70
2021/04/09 11:08:29;;;;;;;9.05;4.38;;;;;;;;;;4991424;28;20023;-70
2021/04/09 11:11:03;;;;;;;8.82;4.40;;;;;;;;;;4991597;28;20034;-74
2021/04/09 11:13:40;;;;;;;9.32;4.05;;;;;;;;;;4991841;28;20033;-71
2021/04/09 11:16:07;;;;;;;8.50;4.40;;;;;;;;;;4991944;28;20022;-71
2021/04/09 11:18:52;;;;;;;6.63;3.97;;;;;;;;;;4991561;28;20034;-72
2021/04/09 11:21:37;;;;;;;8.32;3.88;;;;;;;;;;4991936;28;20022;-71
2021/04/09 11:24:03;;;;;;;7.97;3.88;;;;;;;;;;4991654;28;20026;-71
2021/04/09 11:26:34;;;;;;;7.32;3.13;;;;;;;;;;4992104;28;20038;-71
2021/04/09 11:29:00;;;;;;;5.90;3.60;;;;;;;;;;4991642;28;20030;-64
2021/04/09 11:31:26;;;;;;;7.47;4.18;;;;;;;;;;4990969;28;20047;-70
2021/04/09 11:34:06;;;;;;;8.02;3.75;;;;;;;;;;4991578;28;20670;-70
2021/04/09 11:36:38;;;;;;;8.30;3.63;;;;;;;;;;4991620;28;20026;-70
2021/04/09 11:39:09;;;;;;;10.13;4.47;;;;;;;;;;4991445;28;20096;-71
2021/04/09 11:41:36;;;;;;;5.43;3.50;;;;;;;;;;4991650;28;20030;-69
2021/04/09 11:44:22;;;;;;;6.93;3.95;;;;;;;;;;4991629;28;20019;-71
2021/04/09 11:46:48;;;;;;;8.30;3.75;;;;;;;;;;4983391;28;20522;-70
2021/04/09 11:49:15;;;;;;;12.90;5.93;;;;;;;;;;4981531;28;20367;-70
2021/04/09 11:51:41;;;;;;;8.10;4.75;;;;;;;;;;4980035;28;20121;-70
2021/04/09 11:54:21;;;;;;;7.80;3.90;;;;;;;;;;4985982;28;20023;-73
2021/04/09 11:56:49;;;;;;;8.10;3.67;;;;;;;;;;4986864;28;20034;-70
2021/04/09 11:59:16;;;;;;;6.50;3.22;;;;;;;;;;4985550;28;20023;-67
2021/04/09 12:01:42;;;;;;;5.97;4.10;;;;;;;;;;4986663;28;20081;-70
2021/04/09 12:04:08;;;;;;;6.18;3.67;;;;;;;;;;4987197;28;20094;-71
2021/04/09 12:06:38;;;;;;;7.68;3.85;;;;;;;;;;4985702;28;20070;-71
2021/04/09 12:09:05;;;;;;;9.02;3.53;;;;;;;;;;4986783;28;20019;-71
2021/04/09 12:11:31;;;;;;;7.53;3.95;;;;;;;;;;4982665;28;20557;-71
2021/04/09 12:13:57;;;;;;;11.65;3.90;;;;;;;;;;4992869;28;20081;-74
2021/04/09 12:16:23;;;;;;;6.47;3.65;;;;;;;;;;4991036;28;20037;-71
2021/04/09 12:18:50;;;;;;;5.63;3.33;;;;;;;;;;4977917;28;20041;-70
2021/04/09 12:21:16;;;;;;;6.57;3.08;;;;;;;;;;4992727;28;20057;-69
2021/04/09 12:23:42;;;;;;;7.47;3.67;;;;;;;;;;4985257;28;20023;-67
2021/04/09 12:26:08;;;;;;;10.30;3.50;;;;;;;;;;4991080;28;20117;-71
2021/04/09 12:28:34;;;;;;;6.78;3.13;;;;;;;;;;4990961;28;20038;-70
2021/04/09 12:31:00;;;;;;;9.30;3.95;;;;;;;;;;4977703;28;20034;-71
2021/04/09 12:33:26;;;;;;;8.43;3.17;;;;;;;;;;4977384;28;20035;-70
2021/04/09 12:35:52;;;;;;;7.78;3.78;;;;;;;;;;4977609;28;20042;-71
2021/04/09 12:38:19;;;;;;;6.47;3.45;;;;;;;;;;4977240;28;20039;-71
2021/04/09 12:40:45;;;;;;;6.45;3.83;;;;;;;;;;4982073;28;20478;-69
2021/04/09 12:43:11;;;;;;;6.95;3.60;;;;;;;;;;4987371;28;20041;-68
2021/04/09 12:45:37;;;;;;;6.10;3.60;;;;;;;;;;4985821;28;20049;-71
2021/04/09 12:48:03;;;;;;;6.72;3.45;;;;;;;;;;4986125;28;20105;-70
2021/04/09 12:50:29;;;;;;;5.18;2.85;;;;;;;;;;4987057;28;20027;-69
2021/04/09 12:52:55;;;;;;;5.20;3.05;;;;;;;;;;4977636;28;20073;-71
2021/04/09 12:55:21;;;;;;;8.23;3.22;;;;;;;;;;4978024;28;20501;-70
2021/04/09 12:57:47;;;;;;;7.22;3.10;;;;;;;;;;4977667;28;20026;-69
2021/04/09 13:00:14;;;;;;;6.15;3.22;;;;;;;;;;4977381;28;20027;-70
2021/04/09 13:02:40;;;;;;;8.02;3.03;;;;;;;;;;4976800;28;20055;-64
2021/04/09 13:05:06;;;;;;;5.50;2.70;;;;;;;;;;4974752;28;20070;-73
2021/04/09 13:07:32;;;;;;;8.32;2.78;;;;;;;;;;4983693;28;20482;-75
2021/04/09 13:09:58;;;;;;;6.65;2.80;;;;;;;;;;4974951;28;20041;-72
2021/04/09 13:12:25;;;;;;;8.40;3.55;;;;;;;;;;4981094;28;20105;-72
2021/04/09 13:14:51;;;;;;;5.38;3.33;;;;;;;;;;4993576;28;20053;-73
2021/04/09 13:17:17;;;;;;;4.93;3.15;;;;;;;;;;4993431;28;20023;-73
2021/04/09 13:19:43;;;;;;;5.18;2.97;;;;;;;;;;4993488;28;20033;-70
2021/04/09 13:22:09;;;;;;;6.63;2.83;;;;;;;;;;4993241;28;20019;-66
2021/04/09 13:24:35;;;;;;;8.95;2.67;;;;;;;;;;4993429;28;20494;-69
2021/04/09 13:27:03;;;;;;;7.68;3.00;;;;;;;;;;4993102;28;20058;-70
2021/04/09 13:29:30;;;;;;;5.68;2.80;;;;;;;;;;4993329;28;20026;-72
2021/04/09 13:31:56;;;;;;;5.45;2.67;;;;;;;;;;4993163;28;20104;-73
2021/04/09 13:34:23;;;;;;;7.60;3.10;;;;;;;;;;4993199;28;20023;-73
2021/04/09 13:36:49;;;;;;;6.28;3.42;;;;;;;;;;4993308;28;20022;-75
2021/04/09 13:39:15;;;;;;;6.63;2.92;;;;;;;;;;4992809;28;20031;-69
2021/04/09 13:41:41;;;;;;;7.97;3.80;;;;;;;;;;4993140;28;20018;-69
2021/04/09 13:44:08;;;;;;;8.15;2.92;;;;;;;;;;4992496;28;20053;-72
2021/04/09 13:46:34;;;;;;;6.18;2.47;;;;;;;;;;4991537;28;20026;-68
2021/04/09 13:49:00;;;;;;;6.78;2.70;;;;;;;;;;4990016;28;20120;-69
2021/04/09 13:51:26;;;;;;;5.05;2.78;;;;;;;;;;4993032;28;20468;-71
2021/04/09 13:53:52;;;;;;;7.53;3.03;;;;;;;;;;4993135;28;20078;-74
2021/04/09 13:56:19;;;;;;;6.75;2.50;;;;;;;;;;4992676;28;20065;-70
2021/04/09 13:58:45;;;;;;;6.63;3.25;;;;;;;;;;4992736;28;20192;-70
2021/04/09 14:01:11;;;;;;;6.07;2.83;;;;;;;;;;4992107;28;20026;-72
2021/04/09 14:03:37;;;;;;;8.00;3.60;;;;;;;;;;4992635;28;20054;-71
2021/04/09 14:06:03;;;;;;;7.50;3.10;;;;;;;;;;4989606;28;20066;-72
2021/04/09 14:08:29;;;;;;;5.22;2.80;;;;;;;;;;4990841;28;20022;-71
2021/04/09 14:10:55;;;;;;;5.30;2.67;;;;;;;;;;4992461;28;20509;-70
2021/04/09 14:13:22;;;;;;;6.68;2.80;;;;;;;;;;4990367;28;20501;-66
2021/04/09 14:15:48;;;;;;;5.60;2.58;;;;;;;;;;4975794;28;20054;-72
2021/04/09 14:18:14;;;;;;;5.75;2.60;;;;;;;;;;4981363;28;20037;-73
2021/04/09 14:20:41;;;;;;;5.10;2.83;;;;;;;;;;4983451;28;20046;-72
2021/04/09 14:23:07;;;;;;;6.95;2.80;;;;;;;;;;4983257;28;20109;-73
2021/04/09 14:25:33;;;;;;;5.80;2.92;;;;;;;;;;4979804;28;20614;-74
2021/04/09 14:27:59;;;;;;;5.75;2.83;;;;;;;;;;4983869;28;20399;-72
2021/04/09 14:30:26;;;;;;;5.78;2.85;;;;;;;;;;4992684;28;20550;-72
2021/04/09 14:32:52;;;;;;;8.77;3.30;;;;;;;;;;4992271;28;20545;-72
2021/04/09 14:35:19;;;;;;;6.53;3.50;;;;;;;;;;4989100;28;20030;-73
2021/04/09 14:37:46;;;;;;;5.50;2.95;;;;;;;;;;4991257;28;20042;-74
2021/04/09 14:40:13;;;;;;;5.65;3.00;;;;;;;;;;4987906;28;20050;-75
2021/04/09 14:42:40;;;;;;;6.35;2.90;;;;;;;;;;4992032;28;20405;-73
2021/04/09 14:45:07;;;;;;;5.45;2.53;;;;;;;;;;4991655;28;20028;-71
2021/04/09 14:47:33;;;;;;;7.20;3.00;;;;;;;;;;4986331;28;20026;-75
2021/04/09 14:49:59;;;;;;;5.10;2.38;;;;;;;;;;4992486;28;20019;-71
2021/04/09 14:52:26;;;;;;;4.97;2.63;;;;;;;;;;4992106;28;20053;-72
2021/04/09 14:54:52;;;;;;;7.40;3.35;;;;;;;;;;4992138;28;20033;-72
2021/04/09 14:57:19;;;;;;;5.93;3.28;;;;;;;;;;4991914;28;20041;-72
2021/04/09 14:59:45;;;;;;;6.75;3.25;;;;;;;;;;4973069;28;20045;-68
2021/04/09 15:02:12;;;;;;;8.80;2.97;;;;;;;;;;4985013;28;20104;-68
2021/04/09 15:04:38;;;;;;;6.90;2.83;;;;;;;;;;4991748;28;20034;-70
2021/04/09 15:07:04;;;;;;;6.13;2.92;;;;;;;;;;4991882;28;20037;-68
2021/04/09 15:09:30;;;;;;;7.45;2.85;;;;;;;;;;4987859;28;20031;-69
2021/04/09 15:11:56;;;;;;;7.35;2.97;;;;;;;;;;4979951;28;20049;-69
2021/04/09 15:14:23;;;;;;;6.80;2.85;;;;;;;;;;4982632;28;20509;-73
2021/04/09 15:16:49;;;;;;;5.63;2.78;;;;;;;;;;4976518;28;20037;-71
2021/04/09 15:19:15;;;;;;;5.85;2.90;;;;;;;;;;4981738;28;20102;-72
2021/04/09 15:21:41;;;;;;;6.38;3.05;;;;;;;;;;4984241;28;20026;-67
2021/04/09 15:24:07;;;;;;;8.18;3.00;;;;;;;;;;4979071;28;20065;-71
2021/04/09 15:26:33;;;;;;;6.45;3.10;;;;;;;;;;4983359;28;20037;-71
2021/04/09 15:28:59;;;;;;;10.13;3.40;;;;;;;;;;4974203;28;20475;-75
2021/04/09 15:31:28;;;;;;;7.43;3.45;;;;;;;;;;4971607;28;20054;-71
2021/04/09 15:33:54;;;;;;;6.35;2.85;;;;;;;;;;4972062;28;20037;-72
2021/04/09 15:36:20;;;;;;;6.53;2.42;;;;;;;;;;4977683;28;20058;-76
2021/04/09 15:38:51;;;;;;;5.88;2.60;;;;;;;;;;4982859;28;20081;-73
2021/04/09 15:41:18;;;;;;;4.95;2.85;;;;;;;;;;4988814;28;20022;-77
2021/04/09 15:43:46;;;;;;;5.90;2.90;;;;;;;;;;4974516;28;20383;-67
2021/04/09 15:46:12;;;;;;;4.93;2.85;;;;;;;;;;4990918;28;20470;-70
2021/04/09 15:48:38;;;;;;;5.43;2.72;;;;;;;;;;4997095;28;20022;-71
2021/04/09 15:51:05;;;;;;;5.57;3.28;;;;;;;;;;5000695;28;20041;-74
2021/04/09 15:53:37;;;;;;;7.88;3.08;;;;;;;;;;5000199;28;20062;-72
2021/04/09 15:56:04;;;;;;;5.75;2.90;;;;;;;;;;4996990;28;20031;-70
2021/04/09 15:58:30;;;;;;;12.82;5.35;;;;;;;;;;4996804;28;20081;-66
2021/04/09 16:00:56;;;;;;;5.63;3.13;;;;;;;;;;4990237;28;20049;-66
2021/04/09 16:03:23;;;;;;;8.80;3.28;;;;;;;;;;4981359;28;20090;-68
2021/04/09 16:05:49;;;;;;;6.78;3.33;;;;;;;;;;4982404;28;20072;-67
2021/04/09 16:08:15;;;;;;;8.73;3.10;;;;;;;;;;4990306;28;20026;-70
2021/04/09 16:10:41;;;;;;;6.63;3.17;;;;;;;;;;4982344;28;20454;-71
2021/04/09 16:13:07;;;;;;;7.38;3.40;;;;;;;;;;4979597;28;20409;-75
2021/04/09 16:15:36;;;;;;;10.10;3.10;;;;;;;;;;4975834;28;20101;-69
2021/04/09 16:18:03;;;;;;;9.00;3.25;;;;;;;;;;4971710;28;20065;-66
2021/04/09 16:20:29;;;;;;;7.82;3.88;;;;;;;;;;4986159;28;20042;-66
2021/04/09 16:22:55;;;;;;;7.80;3.08;;;;;;;;;;4982046;28;20025;-75
2021/04/09 16:25:21;;;;;;;8.68;3.35;;;;;;;;;;4980871;28;20030;-69
2021/04/09 16:27:49;;;;;;;5.38;3.08;;;;;;;;;;4978402;28;20047;-68
2021/04/09 16:30:16;;;;;;;6.68;2.95;;;;;;;;;;4985975;28;20545;-72
2021/04/09 16:32:42;;;;;;;7.03;3.58;;;;;;;;;;4971249;28;20039;-75
2021/04/09 16:35:08;;;;;;;13.32;5.45;;;;;;;;;;4976168;28;20027;-73
2021/04/09 16:37:34;;;;;;;9.35;4.25;;;;;;;;;;4976266;28;20078;-69
2021/04/09 16:40:00;;;;;;;7.13;3.38;;;;;;;;;;4975793;28;20116;-72
2021/04/09 16:42:26;;;;;;;9.88;3.97;;;;;;;;;;4984067;28;20036;-74
2021/04/09 16:44:52;;;;;;;8.98;4.40;;;;;;;;;;4980731;28;20054;-70
2021/04/09 16:47:18;;;;;;;11.32;5.68;;;;;;;;;;4982863;28;20078;-72
2021/04/09 16:49:44;;;;;;;18.42;7.43;;;;;;;;;;4983074;28;20031;-72
2021/04/09 16:52:11;;;;;;;12.43;6.55;;;;;;;;;;4983606;28;20484;-71
2021/04/09 16:54:38;;;;;;;13.98;7.32;;;;;;;;;;4985083;28;20447;-69
2021/04/09 16:57:05;;;;;;;16.60;7.80;;;;;;;;;;4982685;28;20027;-70
2021/04/09 16:59:31;;;;;;;16.77;8.52;;;;;;;;;;4975904;28;20422;-71
2021/04/09 17:01:57;;;;;;;21.65;10.65;;;;;;;;;;4984449;28;20077;-69
2021/04/09 17:04:23;;;;;;;19.52;10.40;;;;;;;;;;4980541;28;20041;-65
2021/04/09 17:06:49;;;;;;;21.52;11.38;;;;;;;;;;4993640;28;20034;-67
2021/04/09 17:09:15;;;;;;;22.60;11.77;;;;;;;;;;4993430;28;20023;-66
2021/04/09 17:11:41;;;;;;;29.42;13.80;;;;;;;;;;4975903;28;20038;-67
2021/04/09 17:14:07;;;;;;;28.52;13.70;;;;;;;;;;4974090;28;20026;-68
2021/04/09 17:16:33;;;;;;;31.52;15.48;;;;;;;;;;4976746;28;20026;-71
2021/04/09 17:18:59;;;;;;;30.80;15.18;;;;;;;;;;4986130;28;20042;-73
2021/04/09 17:21:25;;;;;;;35.45;16.95;;;;;;;;;;4982145;28;20042;-67
2021/04/09 17:23:52;;;;;;;43.30;19.52;;;;;;;;;;4985591;28;20035;-72
2021/04/09 17:26:18;;;;;;;42.63;19.05;;;;;;;;;;4990035;28;20034;-72
2021/04/09 17:28:44;;;;;;;45.88;21.20;;;;;;;;;;4984772;28;20479;-69
2021/04/09 17:31:10;;;;;;;47.00;21.90;;;;;;;;;;4973734;28;20038;-68
2021/04/09 17:33:36;;;;;;;47.33;21.63;;;;;;;;;;4973762;28;20062;-71
2021/04/09 17:36:02;;;;;;;48.15;23.13;;;;;;;;;;4974122;28;20106;-69
2021/04/09 17:38:31;;;;;;;46.58;21.70;;;;;;;;;;4973620;28;20030;-70
2021/04/09 17:40:57;;;;;;;47.45;22.20;;;;;;;;;;4973503;28;20019;-73
2021/04/09 17:43:23;;;;;;;45.28;23.40;;;;;;;;;;4973812;28;20546;-69
2021/04/09 17:45:49;;;;;;;45.08;22.52;;;;;;;;;;4973636;28;20487;-72
2021/04/09 17:48:15;;;;;;;46.88;24.02;;;;;;;;;;4973878;28;20418;-70
2021/04/09 17:50:41;;;;;;;60.50;28.20;;;;;;;;;;4973262;28;20414;-68
2021/04/09 17:53:10;;;;;;;55.70;27.90;;;;;;;;;;4973586;28;20031;-72
2021/04/09 17:55:37;;;;;;;68.40;31.77;;;;;;;;;;4973515;28;20485;-71
2021/04/09 17:58:03;;;;;;;71.65;34.63;;;;;;;;;;4973060;28;20044;-70
2021/04/09 18:00:29;;;;;;;67.28;32.70;;;;;;;;;;4973142;28;20027;-72
2021/04/09 18:02:55;;;;;;;69.63;33.92;;;;;;;;;;4973111;28;20078;-71
2021/04/09 18:05:21;;;;;;;77.25;37.42;;;;;;;;;;4973305;28;20026;-71
2021/04/09 18:07:47;;;;;;;73.53;36.97;;;;;;;;;;4973368;28;20106;-74
2021/04/09 18:10:13;;;;;;;72.10;36.05;;;;;;;;;;4973111;28;20022;-72
2021/04/09 18:12:39;;;;;;;72.45;36.30;;;;;;;;;;4973049;28;20030;-69
2021/04/09 18:15:06;;;;;;;71.95;36.33;;;;;;;;;;4973202;28;20030;-71
2021/04/09 18:17:32;;;;;;;72.13;35.58;;;;;;;;;;4973385;28;20712;-71
2021/04/09 18:19:58;;;;;;;63.35;32.42;;;;;;;;;;4973242;28;20489;-72
2021/04/09 18:22:24;;;;;;;61.25;30.17;;;;;;;;;;4972683;28;20033;-71
2021/04/09 18:24:50;;;;;;;60.33;28.88;;;;;;;;;;4973260;28;20479;-68
2021/04/09 18:27:17;;;;;;;62.55;29.75;;;;;;;;;;4972674;28;20038;-70
2021/04/09 18:29:43;;;;;;;56.00;28.10;;;;;;;;;;4973123;28;20494;-69
2021/04/09 18:32:09;;;;;;;54.05;27.58;;;;;;;;;;4972688;28;20105;-69
2021/04/09 18:34:36;;;;;;;41.75;21.20;;;;;;;;;;4972996;28;20034;-70
2021/04/09 18:37:02;;;;;;;48.88;22.88;;;;;;;;;;4973233;28;20038;-76
2021/04/09 18:39:28;;;;;;;43.08;19.67;;;;;;;;;;4972636;28;20062;-69
2021/04/09 18:41:54;;;;;;;44.58;20.42;;;;;;;;;;4972876;28;20423;-72
2021/04/09 18:44:20;;;;;;;40.45;19.92;;;;;;;;;;4972959;28;20031;-72
2021/04/09 18:46:46;;;;;;;32.58;17.17;;;;;;;;;;4973035;28;20027;-72
2021/04/09 18:49:12;;;;;;;38.25;19.10;;;;;;;;;;4972551;28;20027;-71
2021/04/09 18:51:38;;;;;;;35.65;17.65;;;;;;;;;;5052037;23;20065;-71
2021/04/09 18:54:06;;;;;;;35.03;17.10;;;;;;;;;;4988674;28;20459;-74
2021/04/09 18:56:33;;;;;;;32.17;15.32;;;;;;;;;;4996315;28;20025;-71
2021/04/09 18:59:00;;;;;;;36.55;18.55;;;;;;;;;;4995316;28;20105;-73
2021/04/09 19:01:26;;;;;;;39.97;19.65;;;;;;;;;;4994485;28;20030;-75
2021/04/09 19:03:53;;;;;;;45.75;22.48;;;;;;;;;;4974818;28;20026;-71
2021/04/09 19:06:29;;;;;;;31.90;16.40;;;;;;;;;;4991895;28;20034;-74
2021/04/09 19:08:55;;;;;;;30.85;15.82;;;;;;;;;;4980037;28;20113;-74
2021/04/09 19:11:21;;;;;;;31.75;15.35;;;;;;;;;;5010563;28;20033;-74
2021/04/09 19:13:48;;;;;;;23.48;11.63;;;;;;;;;;5010670;28;20104;-76
2021/04/09 19:16:14;;;;;;;24.35;12.38;;;;;;;;;;5010753;28;20010;-73
2021/04/09 19:18:40;;;;;;;24.70;11.77;;;;;;;;;;5011294;28;20029;-72
2021/04/09 19:21:07;;;;;;;24.42;12.05;;;;;;;;;;5011178;28;20025;-74
2021/04/09 19:23:33;;;;;;;24.75;11.98;;;;;;;;;;4992574;28;20061;-74
2021/04/09 19:25:59;;;;;;;30.58;13.45;;;;;;;;;;5010953;28;20056;-73
2021/04/09 19:28:25;;;;;;;29.08;13.45;;;;;;;;;;5010570;28;20061;-67
2021/04/09 19:30:55;;;;;;;29.73;13.77;;;;;;;;;;5010289;28;20084;-71
2021/04/09 19:33:22;;;;;;;32.42;15.13;;;;;;;;;;5010987;28;20112;-69
2021/04/09 19:35:48;;;;;;;35.47;15.23;;;;;;;;;;5010717;28;20533;-69
2021/04/09 19:38:17;;;;;;;40.20;16.63;;;;;;;;;;5010409;28;20462;-69
2021/04/09 19:40:43;;;;;;;33.60;14.60;;;;;;;;;;5010659;28;20469;-70
2021/04/09 19:43:09;;;;;;;29.50;12.75;;;;;;;;;;4999612;28;20042;-71
2021/04/09 19:45:35;;;;;;;30.88;12.35;;;;;;;;;;5005712;28;20131;-72
2021/04/09 19:48:01;;;;;;;25.80;11.25;;;;;;;;;;5005358;28;20053;-70
2021/04/09 19:50:28;;;;;;;25.33;10.38;;;;;;;;;;5009678;28;20411;-70
2021/04/09 19:52:54;;;;;;;20.13;10.27;;;;;;;;;;4998937;28;20405;-69
2021/04/09 19:55:20;;;;;;;19.33;9.25;;;;;;;;;;4995432;28;20022;-68
2021/04/09 19:57:46;;;;;;;22.42;9.88;;;;;;;;;;4988107;28;20442;-69
2021/04/09 20:00:14;;;;;;;21.67;9.50;;;;;;;;;;4989035;28;20027;-70
2021/04/09 20:02:40;;;;;;;20.13;9.05;;;;;;;;;;4989285;28;20023;-71
2021/04/09 20:05:07;;;;;;;21.65;9.15;;;;;;;;;;4987498;28;20516;-72
2021/04/09 20:07:33;;;;;;;20.90;9.43;;;;;;;;;;4987182;28;20490;-70
2021/04/09 20:09:59;;;;;;;18.58;9.25;;;;;;;;;;4988498;28;20074;-71
2021/04/09 20:12:25;;;;;;;20.30;9.20;;;;;;;;;;4988494;28;20049;-70